Time;durP1;ratioP1;P1;durP2;ratioP2;P2;SDS_P1;SDS_P2;PMS_P1;PMS_P2;Temp;Humidity;BMP_temperature;BMP_pressure;BME280_temperature;BME280_humidity;BME280_pressure;Samples;Min_cycle;Max_cycle;Signal;HPM_P1;HPM_P2
2023/10/11 00:00:32;;;;;;;11.07;5.03;;;16.70;99.90;;;;;;5093586;28;20031;-75
2023/10/11 00:03:14;;;;;;;14.13;4.97;;;16.80;99.90;;;;;;5093501;28;20028;-75
2023/10/11 00:05:40;;;;;;;22.95;5.18;;;17.40;99.90;;;;;;5075385;28;20472;-75
2023/10/11 00:08:13;;;;;;;9.15;3.42;;;16.60;99.90;;;;;;5093635;28;20024;-75
2023/10/11 00:10:45;;;;;;;9.45;4.32;;;16.60;99.90;;;;;;5093549;28;20020;-75
2023/10/11 00:13:11;;;;;;;16.20;4.30;;;16.70;99.90;;;;;;5093373;28;20038;-75
2023/10/11 00:15:38;;;;;;;16.00;4.78;;;16.60;99.90;;;;;;5093433;28;20023;-75
2023/10/11 00:18:03;;;;;;;11.80;4.75;;;16.60;99.90;;;;;;5093578;28;20030;-75
2023/10/11 00:23:03;;;;;;;17.98;4.63;;;16.60;99.90;;;;;;5093974;28;20039;-75
2023/10/11 00:25:29;;;;;;;14.73;5.35;;;16.50;99.90;;;;;;5093644;28;20016;-75
2023/10/11 00:27:58;;;;;;;17.20;5.60;;;16.50;99.90;;;;;;5093948;28;20066;-75
2023/10/11 00:30:30;;;;;;;15.07;5.80;;;16.60;99.90;;;;;;5075043;28;20016;-75
2023/10/11 00:32:56;;;;;;;16.38;5.30;;;16.60;99.90;;;;;;5093405;28;20024;-74
2023/10/11 00:35:25;;;;;;;13.25;5.18;;;16.50;99.90;;;;;;5093022;28;20043;-75
2023/10/11 00:37:52;;;;;;;18.55;5.72;;;16.50;99.90;;;;;;5093269;28;20024;-75
2023/10/11 00:40:28;;;;;;;15.52;6.40;;;16.50;99.90;;;;;;5093288;28;20472;-75
2023/10/11 00:42:54;;;;;;;20.35;5.72;;;16.60;99.90;;;;;;5074933;28;20020;-75
2023/10/11 00:45:25;;;;;;;14.23;4.88;;;17.00;99.90;;;;;;5093179;28;20489;-75
2023/10/11 00:47:55;;;;;;;16.23;6.03;;;16.60;99.90;;;;;;5093439;28;20375;-75
2023/10/11 00:50:24;;;;;;;15.45;5.60;;;16.60;99.90;;;;;;5093448;28;20016;-75
2023/10/11 00:52:50;;;;;;;22.00;6.55;;;16.60;99.90;;;;;;5075113;28;20020;-75
2023/10/11 00:55:29;;;;;;;16.30;5.85;;;17.10;99.90;;;;;;5074984;28;20391;-75
2023/10/11 00:57:55;;;;;;;14.27;5.25;;;16.70;99.90;;;;;;5093197;28;20020;-75
2023/10/11 01:00:23;;;;;;;13.70;5.35;;;16.70;99.90;;;;;;5093214;28;20024;-75
2023/10/11 01:02:51;;;;;;;18.83;5.65;;;16.60;99.90;;;;;;5077910;28;20101;-75
2023/10/11 01:05:20;;;;;;;;;;;16.60;99.90;;;;;;5097636;28;20507;-75
2023/10/11 01:07:46;;;;;;;15.38;5.97;;;17.40;99.90;;;;;;5079005;28;19911;-75
2023/10/11 01:10:12;;;;;;;14.27;4.93;;;16.60;99.90;;;;;;5097018;28;20395;-75
2023/10/11 01:12:41;;;;;;;14.07;4.75;;;16.60;99.90;;;;;;5078868;28;20016;-75
2023/10/11 01:15:11;;;;;;;17.77;5.03;;;16.60;99.90;;;;;;5078488;28;20035;-75
2023/10/11 01:17:38;;;;;;;17.75;4.22;;;16.60;99.90;;;;;;5078876;28;20451;-75
2023/10/11 01:20:14;;;;;;;16.10;5.35;;;16.60;99.90;;;;;;5078714;28;20534;-75
2023/10/11 01:22:44;;;;;;;14.70;5.57;;;16.60;99.90;;;;;;5078704;28;20039;-75
2023/10/11 01:25:13;;;;;;;15.93;5.25;;;16.60;99.90;;;;;;5096905;28;20046;-75
2023/10/11 01:27:41;;;;;;;13.13;4.82;;;16.60;99.90;;;;;;5078589;28;20031;-75
2023/10/11 01:30:09;;;;;;;12.45;5.03;;;16.60;99.90;;;;;;5078439;28;20016;-75
2023/10/11 01:32:37;;;;;;;14.47;4.93;;;16.60;99.90;;;;;;5096549;28;20020;-75
2023/10/11 01:35:04;;;;;;;14.18;4.97;;;16.60;99.90;;;;;;5096845;28;20364;-75
2023/10/11 01:37:36;;;;;;;15.57;5.15;;;16.60;99.90;;;;;;5096608;28;20024;-75
2023/10/11 01:40:07;;;;;;;13.20;5.28;;;16.50;99.90;;;;;;5078324;28;20019;-75
2023/10/11 01:42:33;;;;;;;18.60;5.50;;;16.50;99.90;;;;;;5096293;28;20523;-75
2023/10/11 01:45:00;;;;;;;15.68;5.75;;;16.50;99.90;;;;;;5078006;28;20043;-75
2023/10/11 01:47:26;;;;;;;11.48;5.07;;;16.50;99.90;;;;;;5096188;28;20023;-74
2023/10/11 01:49:52;;;;;;;10.63;4.10;;;16.50;99.90;;;;;;5096207;28;20102;-75
2023/10/11 01:52:18;;;;;;;16.75;5.35;;;16.50;99.90;;;;;;5096332;28;20022;-75
2023/10/11 01:54:44;;;;;;;11.32;4.55;;;16.50;99.90;;;;;;5096050;28;20107;-75
2023/10/11 01:57:10;;;;;;;37.42;6.35;;;16.50;99.90;;;;;;5077980;28;20024;-75
2023/10/11 01:59:35;;;;;;;13.90;5.15;;;16.40;99.90;;;;;;5096609;28;20047;-75
2023/10/11 02:02:02;;;;;;;17.08;6.35;;;16.40;99.90;;;;;;5096055;28;20415;-75
2023/10/11 02:04:31;;;;;;;20.83;6.25;;;16.40;99.90;;;;;;5077767;28;20024;-75
2023/10/11 02:06:57;;;;;;;;;;;16.50;99.90;;;;;;5096512;28;20032;-75
2023/10/11 02:09:23;;;;;;;18.42;6.28;;;16.40;99.90;;;;;;5096162;28;20327;-75
2023/10/11 02:11:54;;;;;;;22.08;7.63;;;16.30;99.90;;;;;;5077601;28;20020;-75
2023/10/11 02:14:24;;;;;;;13.82;5.88;;;16.60;99.90;;;;;;5096128;28;20052;-75
2023/10/11 02:16:49;;;;;;;15.10;6.00;;;16.50;99.90;;;;;;5095753;28;20016;-75
2023/10/11 02:19:15;;;;;;;11.13;4.60;;;16.30;99.90;;;;;;5078178;28;20031;-75
2023/10/11 02:21:44;;;;;;;20.20;6.50;;;16.30;99.90;;;;;;5077621;28;20415;-75
2023/10/11 02:24:10;;;;;;;;;;;16.30;99.90;;;;;;5077831;28;20016;-75
2023/10/11 02:26:36;;;;;;;10.43;4.90;;;16.30;99.90;;;;;;5095462;28;19904;-75
2023/10/11 02:29:06;;;;;;;19.85;5.85;;;16.30;99.90;;;;;;5077392;28;20034;-75
2023/10/11 02:31:33;;;;;;;18.50;5.65;;;16.30;99.90;;;;;;5077451;28;20046;-75
2023/10/11 02:34:14;;;;;;;15.50;5.43;;;16.30;99.90;;;;;;5077283;28;20025;-75
2023/10/11 02:36:42;;;;;;;16.73;5.95;;;16.30;99.90;;;;;;5077208;28;20024;-75
2023/10/11 02:39:19;;;;;;;18.60;5.85;;;16.50;99.90;;;;;;5095445;28;20087;-75
2023/10/11 02:41:46;;;;;;;15.30;5.75;;;16.20;99.90;;;;;;5095208;28;20026;-75
2023/10/11 02:44:12;;;;;;;15.23;5.63;;;16.10;99.90;;;;;;5095246;28;20457;-75
2023/10/11 02:46:42;;;;;;;19.55;5.97;;;16.20;99.90;;;;;;5095186;28;20027;-75
2023/10/11 02:49:18;;;;;;;16.85;6.03;;;16.10;99.90;;;;;;5095294;28;20112;-75
2023/10/11 02:51:53;;;;;;;17.73;5.32;;;16.00;99.90;;;;;;5095811;28;20039;-75
2023/10/11 02:54:24;;;;;;;12.10;5.05;;;16.10;99.90;;;;;;5076215;28;20043;-75
2023/10/11 02:56:52;;;;;;;11.88;5.25;;;16.20;99.90;;;;;;5076662;28;20461;-75
2023/10/11 02:59:19;;;;;;;19.90;5.20;;;16.10;99.90;;;;;;5095044;28;20012;-75
2023/10/11 03:01:59;;;;;;;13.40;5.05;;;16.10;99.90;;;;;;5094924;28;20360;-75
2023/10/11 03:04:39;;;;;;;15.57;5.28;;;16.00;99.90;;;;;;5094844;28;20020;-75
2023/10/11 03:07:05;;;;;;;14.23;4.88;;;16.00;99.90;;;;;;5076506;28;20069;-75
2023/10/11 03:09:33;;;;;;;11.70;5.72;;;16.10;99.90;;;;;;5094768;28;20022;-75
2023/10/11 03:12:05;;;;;;;20.13;5.37;;;16.10;99.90;;;;;;5076410;28;20031;-75
2023/10/11 03:14:41;;;;;;;19.17;5.43;;;16.00;99.90;;;;;;5094624;28;20502;-75
2023/10/11 03:17:07;;;;;;;14.32;5.38;;;16.00;99.90;;;;;;5077649;28;20491;-75
2023/10/11 03:19:34;;;;;;;16.23;5.63;;;16.00;99.90;;;;;;5076328;28;20032;-75
2023/10/11 03:22:02;;;;;;;12.27;5.20;;;16.00;99.90;;;;;;5094574;28;20082;-75
2023/10/11 03:24:33;;;;;;;16.00;5.05;;;16.00;99.90;;;;;;5093796;28;20057;-75
2023/10/11 03:27:00;;;;;;;13.70;4.82;;;16.70;99.90;;;;;;5076298;28;20035;-75
2023/10/11 03:29:30;;;;;;;15.32;5.45;;;16.00;99.90;;;;;;5076168;28;20040;-75
2023/10/11 03:31:57;;;;;;;9.63;4.65;;;16.00;99.90;;;;;;5094257;28;20017;-75
2023/10/11 03:34:23;;;;;;;10.60;4.45;;;16.00;99.90;;;;;;5076057;28;20027;-75
2023/10/11 03:36:51;;;;;;;14.60;5.13;;;16.00;99.90;;;;;;5094129;28;20036;-75
2023/10/11 03:42:14;;;;;;;12.63;5.20;;;15.90;99.90;;;;;;5094446;28;19955;-75
2023/10/11 03:44:40;;;;;;;11.82;4.85;;;16.00;99.90;;;;;;5094553;28;20024;-75
2023/10/11 03:47:08;;;;;;;21.15;6.03;;;15.90;99.90;;;;;;5075714;28;20035;-75
2023/10/11 03:49:51;;;;;;;11.60;5.20;;;16.50;99.90;;;;;;5094010;28;20527;-75
2023/10/11 03:52:30;;;;;;;15.23;6.20;;;16.00;99.90;;;;;;5094312;28;20329;-75
2023/10/11 03:55:09;;;;;;;11.70;5.00;;;16.00;99.90;;;;;;5093894;28;20403;-75
2023/10/11 03:57:40;;;;;;;;;;;16.00;99.90;;;;;;5075954;28;20024;-75
2023/10/11 04:02:47;;;;;;;9.95;4.35;;;15.90;99.90;;;;;;5093749;28;20030;-75
2023/10/11 04:05:13;;;;;;;13.40;4.70;;;16.00;99.90;;;;;;5093619;28;20020;-75
2023/10/11 04:07:40;;;;;;;16.48;4.97;;;16.00;99.90;;;;;;5093841;28;20105;-75
2023/10/11 04:10:10;;;;;;;10.63;4.80;;;15.90;99.90;;;;;;5093667;28;20028;-75
2023/10/11 04:12:42;;;;;;;13.98;5.43;;;15.90;99.90;;;;;;5076510;28;20056;-75
2023/10/11 04:15:15;;;;;;;11.80;4.72;;;16.00;99.90;;;;;;5075484;28;20028;-75
2023/10/11 04:17:41;;;;;;;12.30;4.80;;;16.00;99.90;;;;;;5093584;28;20031;-75
2023/10/11 04:20:31;;;;;;;16.38;5.13;;;15.90;99.90;;;;;;5075371;28;20493;-75
2023/10/11 04:23:10;;;;;;;15.52;5.68;;;15.90;99.90;;;;;;5093469;28;20024;-75
2023/10/11 04:25:37;;;;;;;13.00;4.80;;;15.90;99.90;;;;;;5093334;28;20035;-76
2023/10/11 04:28:05;;;;;;;10.63;5.30;;;15.90;99.90;;;;;;5093375;28;20539;-75
2023/10/11 04:30:41;;;;;;;13.82;5.70;;;15.90;99.90;;;;;;5093888;28;20065;-75
2023/10/11 04:33:20;;;;;;;13.05;5.18;;;15.90;99.90;;;;;;5075284;28;20068;-75
2023/10/11 04:35:55;;;;;;;15.88;5.32;;;15.90;99.90;;;;;;5074635;28;20479;-75
2023/10/11 04:38:21;;;;;;;14.73;5.70;;;15.90;99.90;;;;;;5074998;28;20024;-75
2023/10/11 04:40:53;;;;;;;14.57;5.53;;;16.00;99.90;;;;;;5093406;28;20395;-75
2023/10/11 04:43:25;;;;;;;15.27;6.20;;;15.90;99.90;;;;;;5093226;28;20028;-75
2023/10/11 04:45:59;;;;;;;14.02;5.85;;;16.00;99.90;;;;;;5075120;28;20016;-75
2023/10/11 04:48:29;;;;;;;15.32;5.85;;;15.90;99.90;;;;;;5093354;28;20020;-75
2023/10/11 04:51:04;;;;;;;11.10;5.28;;;15.90;99.90;;;;;;5093269;28;20043;-75
2023/10/11 04:53:32;;;;;;;18.67;6.43;;;16.00;99.90;;;;;;5075221;28;20016;-75
2023/10/11 04:55:59;;;;;;;17.40;6.00;;;16.00;99.90;;;;;;5092843;28;20177;-75
2023/10/11 04:58:42;;;;;;;13.77;6.25;;;17.80;99.90;;;;;;5093009;28;20028;-75
2023/10/11 05:01:11;;;;;;;17.80;6.45;;;16.00;99.90;;;;;;5093175;28;20103;-75
2023/10/11 05:03:37;;;;;;;16.85;5.07;;;15.90;99.90;;;;;;5093061;28;20062;-75
2023/10/11 05:06:14;;;;;;;18.80;6.82;;;15.90;99.90;;;;;;5092945;28;20507;-75
2023/10/11 05:09:02;;;;;;;16.67;7.60;;;15.90;99.90;;;;;;5092943;28;20093;-75
2023/10/11 05:11:42;;;;;;;16.27;6.30;;;15.90;99.90;;;;;;5093780;28;20468;-75
2023/10/11 05:14:28;;;;;;;17.70;7.20;;;15.90;99.90;;;;;;5075092;28;20028;-75
2023/10/11 05:27:56;;;;;;;16.67;7.45;;;16.00;99.90;;;;;;5093829;28;20039;-75
2023/10/11 05:52:07;;;;;;;18.10;6.68;;;16.00;99.90;;;;;;5097178;28;20034;-75
2023/10/11 05:54:37;;;;;;;19.38;6.82;;;16.00;99.90;;;;;;5096470;28;20036;-75
2023/10/11 05:57:06;;;;;;;18.48;6.70;;;16.00;99.90;;;;;;5078117;28;20402;-75
2023/10/11 05:59:32;;;;;;;23.33;7.47;;;16.00;99.90;;;;;;5096071;28;20178;-75
2023/10/11 06:01:59;;;;;;;18.88;7.40;;;15.90;99.90;;;;;;5096713;28;20028;-75
2023/10/11 06:04:25;;;;;;;18.85;6.65;;;16.00;99.90;;;;;;5096046;28;20024;-75
2023/10/11 06:06:57;;;;;;;23.00;8.88;;;15.90;99.90;;;;;;5095828;28;20479;-75
2023/10/11 06:09:27;;;;;;;18.45;7.10;;;15.90;99.90;;;;;;5096399;28;20020;-75
2023/10/11 06:11:53;;;;;;;23.63;8.40;;;15.90;99.90;;;;;;5075813;28;20074;-75
2023/10/11 06:14:19;;;;;;;18.77;7.82;;;15.90;99.90;;;;;;5094668;28;20020;-75
2023/10/11 06:16:55;;;;;;;18.83;7.72;;;15.80;99.90;;;;;;5076345;28;20020;-75
2023/10/11 06:19:25;;;;;;;27.88;8.13;;;15.80;99.90;;;;;;5077666;28;20020;-75
2023/10/11 06:22:09;;;;;;;30.73;7.85;;;15.80;99.90;;;;;;5095850;28;20032;-75
2023/10/11 06:24:39;;;;;;;27.85;9.10;;;15.90;99.90;;;;;;5077498;28;20029;-75
2023/10/11 06:29:55;;;;;;;30.73;9.15;;;15.90;99.90;;;;;;5095653;28;20069;-75
2023/10/11 06:32:22;;;;;;;28.02;8.27;;;15.90;99.90;;;;;;5096182;28;20027;-75
2023/10/11 06:34:48;;;;;;;20.17;7.88;;;16.00;99.90;;;;;;5077408;28;20043;-75
2023/10/11 06:37:35;;;;;;;18.00;6.88;;;15.90;99.90;;;;;;5077388;28;20012;-75
2023/10/11 06:42:31;;;;;;;27.73;8.57;;;16.00;99.90;;;;;;5095674;28;20020;-75
2023/10/11 06:45:01;;;;;;;23.75;7.10;;;16.40;99.90;;;;;;5095417;28;20168;-75
2023/10/11 06:47:35;;;;;;;26.70;8.38;;;16.30;99.90;;;;;;5095151;28;20024;-75
2023/10/11 06:50:11;;;;;;;24.20;7.28;;;16.10;99.90;;;;;;5095720;28;20027;-75
2023/10/11 06:52:43;;;;;;;18.05;8.07;;;16.10;99.90;;;;;;5076984;28;20052;-75
2023/10/11 06:57:45;;;;;;;21.52;7.90;;;16.20;99.90;;;;;;5095423;28;20126;-75
2023/10/11 07:00:20;;;;;;;19.13;7.07;;;16.20;99.90;;;;;;5076900;28;20034;-75
2023/10/11 07:03:06;;;;;;;20.50;7.60;;;16.30;99.90;;;;;;5094795;28;20031;-75
2023/10/11 07:05:40;;;;;;;25.20;9.27;;;16.30;99.90;;;;;;5094850;28;20391;-75
2023/10/11 07:08:09;;;;;;;22.80;7.05;;;16.30;99.90;;;;;;5077380;28;20035;-75
2023/10/11 07:10:40;;;;;;;19.20;7.82;;;16.30;99.90;;;;;;5076625;28;20099;-75
2023/10/11 07:13:07;;;;;;;21.75;8.18;;;16.30;99.90;;;;;;5076606;28;20495;-75
2023/10/11 07:15:41;;;;;;;21.10;7.05;;;16.40;99.90;;;;;;5076557;28;20399;-75
2023/10/11 07:18:10;;;;;;;18.13;8.00;;;16.50;99.90;;;;;;5094670;28;20430;-74
2023/10/11 07:20:49;;;;;;;15.57;6.65;;;16.40;99.90;;;;;;5094601;28;20020;-75
2023/10/11 07:23:21;;;;;;;18.85;7.63;;;16.40;99.90;;;;;;5076323;28;20070;-75
2023/10/11 07:25:49;;;;;;;18.70;7.70;;;16.40;99.90;;;;;;5095000;28;20059;-75
2023/10/11 07:28:35;;;;;;;22.67;7.88;;;16.40;99.90;;;;;;5094471;28;20023;-75
2023/10/11 07:31:03;;;;;;;21.20;9.38;;;16.40;99.90;;;;;;5076436;28;20035;-75
2023/10/11 07:33:29;;;;;;;;;;;16.50;99.90;;;;;;5094839;28;20483;-75
2023/10/11 07:35:56;;;;;;;31.02;8.15;;;16.60;99.90;;;;;;5094155;28;19904;-75
2023/10/11 07:38:21;;;;;;;24.08;6.22;;;16.80;99.90;;;;;;5094234;28;20369;-75
2023/10/11 07:40:52;;;;;;;26.17;8.73;;;16.60;99.90;;;;;;5076067;28;20103;-75
2023/10/11 07:43:18;;;;;;;22.88;7.65;;;16.60;99.90;;;;;;5076102;28;20405;-75
2023/10/11 07:45:50;;;;;;;20.33;7.75;;;16.40;99.90;;;;;;5094327;28;20024;-75
2023/10/11 07:48:17;;;;;;;25.50;8.32;;;16.50;99.90;;;;;;5075837;28;20028;-75
2023/10/11 07:50:46;;;;;;;24.38;8.52;;;16.50;99.90;;;;;;5075865;28;20078;-75
2023/10/11 07:53:13;;;;;;;30.63;9.07;;;16.60;99.90;;;;;;5094484;28;20035;-75
2023/10/11 07:55:40;;;;;;;22.63;7.07;;;16.50;99.90;;;;;;5075679;28;20032;-75
2023/10/11 07:58:08;;;;;;;25.70;9.27;;;16.60;99.90;;;;;;5093872;28;20073;-75
2023/10/11 08:00:40;;;;;;;30.63;9.07;;;16.60;99.90;;;;;;5075566;28;20406;-75
2023/10/11 08:03:08;;;;;;;27.77;8.98;;;16.60;99.90;;;;;;5093801;28;20028;-75
2023/10/11 08:05:45;;;;;;;23.30;8.45;;;16.60;99.90;;;;;;5093815;28;20069;-75
2023/10/11 08:08:15;;;;;;;15.67;8.17;;;16.70;99.90;;;;;;5094480;28;20086;-75
2023/10/11 08:10:44;;;;;;;21.42;7.75;;;16.70;99.90;;;;;;5093547;28;20076;-75
2023/10/11 08:13:26;;;;;;;22.30;8.48;;;16.70;99.90;;;;;;5075603;28;20058;-75
2023/10/11 08:15:59;;;;;;;22.10;9.45;;;16.80;99.90;;;;;;5093664;28;20141;-75
2023/10/11 08:18:26;;;;;;;27.42;9.23;;;16.80;99.90;;;;;;5075512;28;20028;-75
2023/10/11 08:20:52;;;;;;;22.85;8.18;;;16.80;99.90;;;;;;5093598;28;20028;-75
2023/10/11 08:23:29;;;;;;;24.58;9.30;;;16.80;99.90;;;;;;5075371;28;20391;-75
2023/10/11 08:25:56;;;;;;;26.42;8.50;;;16.80;99.90;;;;;;5093527;28;20043;-75
2023/10/11 08:28:28;;;;;;;27.15;9.38;;;16.80;99.90;;;;;;5075663;28;20027;-75
2023/10/11 08:30:57;;;;;;;25.95;7.75;;;16.80;99.90;;;;;;5093406;28;20027;-75
2023/10/11 08:33:25;;;;;;;;;;;16.70;99.90;;;;;;5075671;28;20024;-75
2023/10/11 08:35:53;;;;;;;25.98;8.02;;;16.80;99.90;;;;;;5093263;28;19904;-75
2023/10/11 08:38:19;;;;;;;23.08;7.97;;;16.80;99.90;;;;;;5093823;28;20028;-75
2023/10/11 08:40:49;;;;;;;25.25;7.57;;;16.70;99.90;;;;;;5075222;28;20119;-75
2023/10/11 08:43:15;;;;;;;25.00;8.90;;;16.80;99.90;;;;;;5075110;28;20077;-75
2023/10/11 08:45:59;;;;;;;24.83;8.45;;;16.90;99.90;;;;;;5075054;28;20539;-75
2023/10/11 08:48:25;;;;;;;26.40;9.68;;;16.90;99.90;;;;;;5093213;28;20024;-75
2023/10/11 08:50:55;;;;;;;27.92;9.45;;;16.90;99.90;;;;;;5093126;28;20013;-75
2023/10/11 08:53:24;;;;;;;22.63;9.27;;;16.90;99.90;;;;;;5093190;28;20016;-75
2023/10/11 08:55:56;;;;;;;23.13;9.90;;;16.90;99.90;;;;;;5074842;28;20096;-75
2023/10/11 08:58:28;;;;;;;24.77;8.88;;;16.90;99.90;;;;;;5093692;28;20028;-75
2023/10/11 09:00:59;;;;;;;24.83;8.88;;;16.90;99.90;;;;;;5074908;28;20511;-75
2023/10/11 09:03:26;;;;;;;24.05;9.13;;;16.90;99.90;;;;;;5075044;28;20024;-75
2023/10/11 09:05:59;;;;;;;27.13;9.73;;;16.90;99.90;;;;;;5093129;28;20420;-75
2023/10/11 09:08:35;;;;;;;23.23;9.40;;;16.90;99.90;;;;;;5093290;28;20128;-75
2023/10/11 09:11:28;;;;;;;26.52;10.20;;;17.00;99.90;;;;;;5074892;28;20387;-75
2023/10/11 09:14:13;;;;;;;29.05;9.77;;;16.90;99.90;;;;;;5093553;28;20032;-75
2023/10/11 09:16:42;;;;;;;26.25;8.73;;;16.90;99.90;;;;;;5092879;28;20028;-75
2023/10/11 09:19:11;;;;;;;26.55;10.07;;;16.90;99.90;;;;;;5092913;28;20028;-75
2023/10/11 09:21:42;;;;;;;24.45;9.40;;;16.90;99.90;;;;;;5093065;28;20066;-75
2023/10/11 09:24:41;;;;;;;33.17;8.35;;;16.90;99.90;;;;;;5096148;28;20027;-75
2023/10/11 09:29:43;;;;;;;26.92;9.52;;;16.90;99.90;;;;;;5097084;28;20031;-75
2023/10/11 09:32:09;;;;;;;26.30;8.57;;;17.10;99.90;;;;;;5096687;28;20016;-75
2023/10/11 09:34:41;;;;;;;19.55;7.20;;;17.10;99.90;;;;;;5096687;28;20020;-75
2023/10/11 09:37:11;;;;;;;20.70;8.93;;;17.10;99.90;;;;;;5078432;28;20039;-75
2023/10/11 09:39:40;;;;;;;25.02;9.75;;;17.10;99.90;;;;;;5078393;28;20031;-75
2023/10/11 09:42:13;;;;;;;24.48;10.38;;;17.20;99.90;;;;;;5096537;28;20024;-75
2023/10/11 09:44:40;;;;;;;22.20;8.77;;;17.30;99.90;;;;;;5078190;28;20519;-75
2023/10/11 09:47:17;;;;;;;30.05;10.07;;;17.20;99.90;;;;;;5078170;28;20145;-75
2023/10/11 09:49:46;;;;;;;26.02;8.77;;;17.30;99.90;;;;;;5096477;28;20480;-75
2023/10/11 09:52:18;;;;;;;24.65;9.18;;;17.30;99.90;;;;;;5078232;28;20016;-75
2023/10/11 09:54:45;;;;;;;25.02;9.85;;;17.30;99.90;;;;;;5096455;28;20479;-75
2023/10/11 09:57:37;;;;;;;31.58;9.75;;;17.20;99.90;;;;;;5096363;28;20095;-75
2023/10/11 10:00:34;;;;;;;29.80;9.82;;;17.30;99.90;;;;;;5096615;28;20096;-75
2023/10/11 10:03:00;;;;;;;21.20;7.43;;;17.40;99.90;;;;;;5077924;28;20024;-75
2023/10/11 10:05:30;;;;;;;27.80;9.18;;;17.40;99.90;;;;;;5095984;28;20031;-75
2023/10/11 10:08:13;;;;;;;21.08;8.13;;;17.40;99.90;;;;;;5096098;28;20012;-75
2023/10/11 10:10:54;;;;;;;18.80;7.95;;;17.50;99.90;;;;;;5096162;28;20024;-75
2023/10/11 10:13:24;;;;;;;26.35;9.93;;;17.50;99.90;;;;;;5096056;28;20495;-75
2023/10/11 10:15:52;;;;;;;23.52;8.60;;;17.60;99.90;;;;;;5095833;28;20028;-75
2023/10/11 10:18:19;;;;;;;25.03;8.97;;;17.60;99.90;;;;;;5095957;28;20023;-75
2023/10/11 10:20:47;;;;;;;26.50;9.15;;;17.60;99.90;;;;;;5095803;28;20269;-75
2023/10/11 10:23:20;;;;;;;23.48;8.98;;;17.50;99.90;;;;;;5095693;28;20058;-75
2023/10/11 10:26:13;;;;;;;23.88;9.50;;;17.70;99.90;;;;;;5077573;28;20020;-75
2023/10/11 10:28:39;;;;;;;25.35;7.90;;;18.00;99.90;;;;;;5096109;28;20382;-75
2023/10/11 10:31:09;;;;;;;30.17;8.48;;;18.00;99.90;;;;;;5095571;28;20020;-75
2023/10/11 10:33:35;;;;;;;15.85;6.38;;;18.10;99.90;;;;;;5076949;28;20502;-75
2023/10/11 10:36:20;;;;;;;24.48;7.13;;;18.30;99.90;;;;;;5094823;28;20027;-74
2023/10/11 10:39:00;;;;;;;22.27;7.45;;;18.40;99.90;;;;;;5077514;28;20403;-75
2023/10/11 10:41:27;;;;;;;20.95;7.28;;;18.50;99.90;;;;;;5095983;28;20157;-75
2023/10/11 10:44:11;;;;;;;18.20;6.55;;;18.50;99.90;;;;;;5077312;28;20031;-75
2023/10/11 10:46:49;;;;;;;27.05;6.55;;;18.70;99.90;;;;;;5077147;28;20024;-75
2023/10/11 10:49:15;;;;;;;22.17;6.57;;;18.80;99.90;;;;;;5077218;28;20020;-75
2023/10/11 10:51:47;;;;;;;25.55;7.50;;;19.00;99.90;;;;;;5077073;28;20520;-75
2023/10/11 10:54:13;;;;;;;20.00;6.22;;;19.20;99.90;;;;;;5095985;28;20384;-75
2023/10/11 10:56:47;;;;;;;27.55;5.35;;;19.70;99.90;;;;;;5094937;28;20039;-75
2023/10/11 10:59:14;;;;;;;20.38;5.60;;;19.70;99.90;;;;;;5094951;28;20020;-75
2023/10/11 11:01:47;;;;;;;18.95;6.47;;;19.70;99.90;;;;;;5095050;28;20111;-75
2023/10/11 11:04:14;;;;;;;16.92;4.80;;;19.80;99.90;;;;;;5095263;28;20030;-75
2023/10/11 11:06:46;;;;;;;24.27;6.33;;;19.80;99.90;;;;;;5076874;28;20016;-75
2023/10/11 11:09:18;;;;;;;14.25;5.22;;;19.80;99.90;;;;;;5076784;28;20020;-75
2023/10/11 11:11:44;;;;;;;10.48;3.83;;;19.90;99.90;;;;;;5076724;28;20020;-75
2023/10/11 11:14:14;;;;;;;17.23;3.67;;;19.90;99.90;;;;;;5094797;28;20024;-75
2023/10/11 11:16:41;;;;;;;16.17;4.15;;;20.00;99.90;;;;;;5094575;28;20450;-75
2023/10/11 11:19:16;;;;;;;9.55;2.72;;;20.00;99.90;;;;;;5094811;28;20026;-75
2023/10/11 11:21:45;;;;;;;10.07;2.65;;;20.00;99.90;;;;;;5094669;28;20479;-75
2023/10/11 11:24:27;;;;;;;7.80;2.70;;;20.00;99.90;;;;;;5094566;28;20024;-75
2023/10/11 11:26:54;;;;;;;11.63;2.53;;;20.00;99.90;;;;;;5076393;28;20028;-74
2023/10/11 11:29:33;;;;;;;5.50;2.15;;;20.00;99.90;;;;;;5076420;28;20021;-75
2023/10/11 11:32:07;;;;;;;9.90;1.90;;;19.90;99.90;;;;;;5094456;28;20031;-75
2023/10/11 11:34:37;;;;;;;9.82;1.90;;;20.10;99.90;;;;;;5076243;28;20398;-75
2023/10/11 11:37:07;;;;;;;10.90;2.33;;;20.10;99.90;;;;;;5076231;28;20453;-75
2023/10/11 11:39:39;;;;;;;8.10;2.55;;;20.40;99.90;;;;;;5094233;28;20028;-75
2023/10/11 11:42:24;;;;;;;7.47;1.42;;;20.60;99.90;;;;;;5076210;28;20024;-75
2023/10/11 11:44:50;;;;;;;5.93;1.50;;;20.90;99.90;;;;;;5075883;28;20440;-75
2023/10/11 11:47:22;;;;;;;7.35;1.00;;;20.80;99.90;;;;;;5093894;28;20046;-75
2023/10/11 11:49:48;;;;;;;3.53;0.90;;;20.60;99.90;;;;;;5094196;28;20039;-75
2023/10/11 11:52:16;;;;;;;5.78;0.65;;;20.50;99.90;;;;;;5094152;28;20028;-75
2023/10/11 11:54:44;;;;;;;;;;;20.80;99.90;;;;;;5094250;28;20392;-75
2023/10/11 11:57:10;;;;;;;5.80;0.57;;;20.20;99.90;;;;;;5076237;28;20337;-75
2023/10/11 11:59:37;;;;;;;2.67;0.40;;;20.20;99.90;;;;;;5075488;28;20020;-75
2023/10/11 12:02:08;;;;;;;3.63;1.15;;;20.20;99.90;;;;;;5093941;28;20073;-75
2023/10/11 12:04:36;;;;;;;5.53;1.17;;;20.10;99.90;;;;;;5075715;28;20067;-75
2023/10/11 12:07:05;;;;;;;3.10;0.32;;;20.10;99.90;;;;;;5093841;28;20103;-75
2023/10/11 12:09:32;;;;;;;5.28;0.88;;;20.50;99.90;;;;;;5093756;28;20024;-75
2023/10/11 12:12:10;;;;;;;3.15;0.82;;;20.70;99.90;;;;;;5093816;28;20020;-75
2023/10/11 12:14:37;;;;;;;3.53;0.40;;;20.10;99.90;;;;;;5094159;28;20410;-75
2023/10/11 12:17:09;;;;;;;4.22;0.73;;;20.10;99.90;;;;;;5093833;28;20024;-75
2023/10/11 12:19:42;;;;;;;8.13;1.40;;;20.10;99.90;;;;;;5093900;28;20111;-75
2023/10/11 12:22:14;;;;;;;3.42;0.85;;;20.10;99.90;;;;;;5075344;28;20016;-75
2023/10/11 12:24:44;;;;;;;1.77;0.50;;;20.10;99.90;;;;;;5093327;28;20429;-75
2023/10/11 12:27:11;;;;;;;7.35;1.17;;;20.20;99.90;;;;;;5093228;28;20039;-75
2023/10/11 12:29:37;;;;;;;7.88;1.55;;;20.30;99.90;;;;;;5075134;28;20020;-75
2023/10/11 12:32:04;;;;;;;7.72;1.55;;;20.30;99.90;;;;;;5093213;28;20434;-75
2023/10/11 12:34:31;;;;;;;6.47;1.58;;;20.30;99.90;;;;;;5075085;28;20487;-75
2023/10/11 12:36:57;;;;;;;10.48;1.85;;;20.20;99.90;;;;;;5093073;28;20472;-75
2023/10/11 12:39:29;;;;;;;6.75;1.48;;;20.10;99.90;;;;;;5093691;28;20027;-75
2023/10/11 12:41:56;;;;;;;12.68;2.10;;;20.10;99.90;;;;;;5074961;28;20048;-75
2023/10/11 12:44:22;;;;;;;5.57;1.67;;;20.00;99.90;;;;;;5093072;28;20102;-75
2023/10/11 12:46:49;;;;;;;8.25;2.05;;;20.00;99.90;;;;;;5093966;28;20102;-75
2023/10/11 12:49:16;;;;;;;7.28;2.15;;;20.00;99.90;;;;;;5092970;28;20048;-75
2023/10/11 12:51:44;;;;;;;6.60;1.60;;;20.20;99.90;;;;;;5074921;28;20044;-75
2023/10/11 12:54:10;;;;;;;5.80;1.23;;;20.00;99.90;;;;;;5093573;28;20391;-75
2023/10/11 12:56:37;;;;;;;15.73;2.53;;;19.80;99.90;;;;;;5092898;28;20064;-74
2023/10/11 12:59:03;;;;;;;6.22;1.60;;;19.90;99.90;;;;;;5096752;28;20031;-75
2023/10/11 13:02:20;;;;;;;9.93;2.72;;;19.80;99.90;;;;;;5097176;28;20028;-75
2023/10/11 13:04:18;;;;;;;10.00;2.28;;;19.90;99.90;;;;;;5086686;28;20035;-75
2023/10/11 13:06:50;;;;;;;8.35;2.47;;;20.00;99.90;;;;;;5079157;28;20028;-74
2023/10/11 13:09:21;;;;;;;9.77;2.30;;;20.00;99.90;;;;;;5078885;28;20020;-75
2023/10/11 13:11:47;;;;;;;7.18;2.25;;;20.10;99.90;;;;;;5079300;28;20017;-75
2023/10/11 13:14:18;;;;;;;13.07;2.15;;;20.30;99.90;;;;;;5097131;28;20028;-75
2023/10/11 13:16:45;;;;;;;19.90;3.17;;;20.10;99.90;;;;;;5078735;28;20054;-74
2023/10/11 13:19:12;;;;;;;9.27;2.10;;;20.20;99.90;;;;;;5078809;28;20059;-75
2023/10/11 13:21:38;;;;;;;6.05;2.75;;;20.10;99.90;;;;;;5078721;28;20020;-76
2023/10/11 13:24:08;;;;;;;8.48;2.67;;;20.10;99.90;;;;;;5096921;28;20030;-75
2023/10/11 13:26:35;;;;;;;12.43;3.70;;;20.10;99.90;;;;;;5078596;28;20394;-75
2023/10/11 13:29:01;;;;;;;7.90;2.97;;;20.10;99.90;;;;;;5078440;28;20395;-75
2023/10/11 13:31:29;;;;;;;12.82;3.00;;;20.40;99.90;;;;;;5078555;28;20016;-75
2023/10/11 13:33:55;;;;;;;;;;;20.00;99.90;;;;;;5078838;28;20024;-75
2023/10/11 13:36:21;;;;;;;8.60;3.45;;;19.90;99.90;;;;;;5096638;28;19969;-74
2023/10/11 13:38:47;;;;;;;14.00;3.35;;;20.00;99.90;;;;;;5078139;28;20027;-75
2023/10/11 13:41:13;;;;;;;12.73;4.47;;;20.10;99.90;;;;;;5096526;28;20027;-75
2023/10/11 13:43:39;;;;;;;14.65;5.47;;;20.10;99.90;;;;;;5096353;28;20028;-75
2023/10/11 13:46:10;;;;;;;16.35;4.55;;;20.10;99.90;;;;;;5096517;28;20028;-75
2023/10/11 13:48:41;;;;;;;14.35;4.85;;;20.10;99.90;;;;;;5096928;28;20016;-75